createdAt,value
2023-01-19T00:00:38.472Z,98065.38
2023-01-19T00:02:10.470Z,98071.91
2023-01-19T00:03:42.594Z,98072.44
2023-01-19T00:05:14.838Z,98087.47
2023-01-19T00:06:46.823Z,98080.50
2023-01-19T00:08:18.852Z,98078.75
2023-01-19T00:09:50.868Z,98073.44
2023-01-19T00:11:22.807Z,98075.16
2023-01-19T00:12:54.739Z,98086.00
2023-01-19T00:14:26.729Z,98078.00
2023-01-19T00:15:58.776Z,98077.88
2023-01-19T00:17:30.796Z,98071.47
2023-01-19T00:19:02.918Z,98079.03
2023-01-19T00:20:35.723Z,98080.38
2023-01-19T00:22:07.724Z,98075.94
2023-01-19T00:23:39.779Z,98088.13
2023-01-19T00:25:11.830Z,98088.16
2023-01-19T00:26:44.767Z,98091.78
2023-01-19T00:28:18.257Z,98093.97
2023-01-19T00:29:50.187Z,98094.19
2023-01-19T00:31:22.313Z,98104.56
2023-01-19T00:32:54.293Z,98100.44
2023-01-19T00:34:26.509Z,98114.97
2023-01-19T00:35:58.531Z,98106.59
2023-01-19T00:37:30.481Z,98123.41
2023-01-19T00:39:02.408Z,98110.34
2023-01-19T00:40:34.364Z,98111.41
2023-01-19T00:42:25.041Z,98106.59
2023-01-19T00:43:57.201Z,98123.41
2023-01-19T00:45:29.176Z,98120.72
2023-01-19T00:47:04.012Z,98128.41
2023-01-19T00:48:35.963Z,98130.91
2023-01-19T00:50:08.715Z,98129.31
2023-01-19T00:51:40.671Z,98115.38
2023-01-19T00:53:12.775Z,98121.09
2023-01-19T00:54:44.709Z,98122.16
2023-01-19T00:56:17.456Z,98123.44
2023-01-19T00:57:49.392Z,98124.53
2023-01-19T00:59:21.459Z,98135.25
2023-01-19T01:00:53.843Z,98138.66
2023-01-19T01:02:26.246Z,98129.03
2023-01-19T01:03:58.404Z,98138.31
2023-01-19T01:05:30.404Z,98129.38
2023-01-19T01:07:02.373Z,98134.56
2023-01-19T01:08:35.157Z,98152.09
2023-01-19T01:10:11.912Z,98133.69
2023-01-19T01:11:44.694Z,98141.53
2023-01-19T01:13:20.916Z,98140.47
2023-01-19T01:14:54.428Z,98134.38
2023-01-19T01:16:26.455Z,98144.06
2023-01-19T01:17:58.401Z,98144.41
2023-01-19T01:19:30.399Z,98146.22
2023-01-19T01:21:02.983Z,98139.59
2023-01-19T01:22:35.016Z,98141.56
2023-01-19T01:24:07.410Z,98147.31
2023-01-19T01:25:39.501Z,98149.28
2023-01-19T01:27:11.956Z,98150.34
2023-01-19T01:28:43.938Z,98150.34
2023-01-19T01:30:15.991Z,98149.81
2023-01-19T01:31:48.000Z,98146.94
2023-01-19T01:33:41.288Z,98144.81
2023-01-19T01:35:12.761Z,98150.19
2023-01-19T01:36:44.846Z,98147.31
2023-01-19T01:38:17.105Z,98151.41
2023-01-19T01:39:49.104Z,98137.28
2023-01-19T01:41:21.972Z,98138.72
2023-01-19T01:42:57.962Z,98140.53
2023-01-19T01:45:02.412Z,98137.13
2023-01-19T01:46:34.715Z,98141.25
2023-01-19T01:48:15.070Z,98141.94
2023-01-19T01:49:47.789Z,98149.81
2023-01-19T01:51:26.035Z,98149.81
2023-01-19T01:52:58.110Z,98152.31
2023-01-19T01:54:39.706Z,98151.59
2023-01-19T01:56:13.640Z,98152.31
2023-01-19T01:57:47.866Z,98160.53
2023-01-19T01:59:26.413Z,98163.03
2023-01-19T02:01:17.077Z,98168.41
2023-01-19T02:02:52.075Z,98167.84
2023-01-19T02:04:24.315Z,98166.06
2023-01-19T02:05:59.323Z,98162.84
2023-01-19T02:08:03.897Z,98151.41
2023-01-19T02:09:55.366Z,98163.22
2023-01-19T02:11:46.465Z,98165.91
2023-01-19T02:13:19.856Z,98160.91
2023-01-19T02:14:51.908Z,98168.41
2023-01-19T02:16:23.960Z,98153.22
2023-01-19T02:17:58.496Z,98154.44
2023-01-19T02:19:33.146Z,98148.22
2023-01-19T02:21:11.147Z,98149.44
2023-01-19T02:22:48.824Z,98160.91
2023-01-19T02:24:21.334Z,98157.47
2023-01-19T02:25:53.428Z,98159.66
2023-01-19T02:27:25.559Z,98161.78
2023-01-19T02:29:00.331Z,98165.16
2023-01-19T02:30:32.996Z,98166.25
2023-01-19T02:32:05.884Z,98160.53
2023-01-19T02:33:37.946Z,98156.19
2023-01-19T02:35:10.277Z,98151.06
2023-01-19T02:36:45.676Z,98151.75
2023-01-19T02:38:19.009Z,98163.03
2023-01-19T02:39:53.243Z,98164.66
2023-01-19T02:41:28.282Z,98151.97
2023-01-19T02:43:01.106Z,98163.53
2023-01-19T02:44:33.814Z,98160.31
2023-01-19T02:46:05.855Z,98159.28
2023-01-19T02:47:43.063Z,98156.06
2023-01-19T02:49:15.072Z,98149.09
2023-01-19T02:50:49.958Z,98163.59
2023-01-19T02:52:22.636Z,98153.94
2023-01-19T02:54:06.638Z,98156.59
2023-01-19T02:55:40.446Z,98158.94
2023-01-19T02:57:17.626Z,98154.81
2023-01-19T02:58:58.751Z,98150.69
2023-01-19T03:00:33.829Z,98155.69
2023-01-19T03:02:05.883Z,98150.69
2023-01-19T03:03:51.229Z,98152.50
2023-01-19T03:05:26.300Z,98150.88
2023-01-19T03:07:10.238Z,98137.84
2023-01-19T03:08:42.239Z,98140.72
2023-01-19T03:10:37.139Z,98143.78
2023-01-19T03:12:29.385Z,98142.50
2023-01-19T03:14:04.088Z,98140.38
2023-01-19T03:15:47.578Z,98136.78
2023-01-19T03:17:19.854Z,98143.41
2023-01-19T03:18:54.197Z,98140.03
2023-01-19T03:20:28.959Z,98131.78
2023-01-19T03:22:03.863Z,98133.75
2023-01-19T03:23:37.786Z,98141.09
2023-01-19T03:25:09.980Z,98140.72
2023-01-19T03:26:44.171Z,98138.59
2023-01-19T03:28:18.839Z,98151.25
2023-01-19T03:29:53.337Z,98153.94
2023-01-19T03:31:27.496Z,98146.44
2023-01-19T03:33:08.338Z,98145.03
2023-01-19T03:34:41.585Z,98138.94
2023-01-19T03:36:16.859Z,98162.72
2023-01-19T03:37:50.798Z,98148.06
2023-01-19T03:39:23.811Z,98146.78
2023-01-19T03:40:58.193Z,98147.50
2023-01-19T03:42:30.153Z,98148.06
2023-01-19T03:44:02.736Z,98151.28
2023-01-19T03:45:37.109Z,98146.78
2023-01-19T03:47:10.999Z,98146.97
2023-01-19T03:48:43.393Z,98149.66
2023-01-19T03:50:23.965Z,98154.13
2023-01-19T03:51:57.114Z,98154.31
2023-01-19T03:53:29.022Z,98153.25
2023-01-19T03:55:02.034Z,98147.34
2023-01-19T03:56:34.309Z,98148.97
2023-01-19T03:58:06.766Z,98147.34
2023-01-19T03:59:38.770Z,98141.63
2023-01-19T04:01:10.851Z,98142.69
2023-01-19T04:02:42.949Z,98136.44
2023-01-19T04:04:15.728Z,98134.50
2023-01-19T04:05:47.674Z,98128.22
2023-01-19T04:07:19.626Z,98133.03
2023-01-19T04:08:51.923Z,98130.56
2023-01-19T04:10:24.149Z,98132.50
2023-01-19T04:11:57.244Z,98130.72
2023-01-19T04:13:30.148Z,98130.00
2023-01-19T04:15:02.175Z,98125.34
2023-01-19T04:16:35.242Z,98126.25
2023-01-19T04:18:07.186Z,98142.88
2023-01-19T04:19:39.190Z,98135.72
2023-01-19T04:21:11.236Z,98123.22
2023-01-19T04:22:43.186Z,98118.22
2023-01-19T04:24:15.191Z,98118.03
2023-01-19T04:25:47.112Z,98120.34
2023-01-19T04:27:19.287Z,98123.75
2023-01-19T04:28:51.334Z,98121.97
2023-01-19T04:30:23.336Z,98124.66
2023-01-19T04:31:55.276Z,98136.09
2023-01-19T04:33:27.812Z,98141.28
2023-01-19T04:34:59.771Z,98140.72
2023-01-19T04:36:31.826Z,98146.81
2023-01-19T04:38:03.807Z,98147.69
2023-01-19T04:39:36.068Z,98172.88
2023-01-19T04:41:08.060Z,98167.50
2023-01-19T04:42:43.250Z,98168.06
2023-01-19T04:44:15.200Z,98166.09
2023-01-19T04:45:47.795Z,98163.78
2023-01-19T04:47:19.830Z,98180.56
2023-01-19T04:48:51.886Z,98181.44
2023-01-19T04:50:23.827Z,98191.28
2023-01-19T04:51:55.780Z,98178.94
2023-01-19T04:53:27.673Z,98173.25
2023-01-19T04:54:59.655Z,98184.84
2023-01-19T04:56:31.588Z,98182.69
2023-01-19T04:58:03.556Z,98200.34
2023-01-19T04:59:35.451Z,98188.03
2023-01-19T05:01:08.672Z,98199.84
2023-01-19T05:02:42.739Z,98207.69
2023-01-19T05:04:14.720Z,98196.41
2023-01-19T05:05:46.748Z,98196.03
2023-01-19T05:07:18.794Z,98198.22
2023-01-19T05:08:50.961Z,98197.31
2023-01-19T05:10:23.804Z,98196.59
2023-01-19T05:11:55.764Z,98199.81
2023-01-19T05:13:27.855Z,98205.34
2023-01-19T05:14:59.848Z,98209.06
2023-01-19T05:16:31.837Z,98201.56
2023-01-19T05:18:03.911Z,98207.69
2023-01-19T05:19:35.910Z,98194.63
2023-01-19T05:21:07.901Z,98196.22
2023-01-19T05:22:39.985Z,98208.19
2023-01-19T05:24:11.935Z,98219.78
2023-01-19T05:25:44.640Z,98225.34
2023-01-19T05:27:16.667Z,98224.97
2023-01-19T05:28:48.766Z,98228.94
2023-01-19T05:30:20.931Z,98228.56
2023-01-19T05:31:52.963Z,98229.41
2023-01-19T05:33:25.034Z,98235.13
2023-01-19T05:34:57.140Z,98240.13
2023-01-19T05:36:29.919Z,98240.84
2023-01-19T05:38:02.770Z,98248.16
2023-01-19T05:39:34.715Z,98251.34
2023-01-19T05:41:06.663Z,98248.50
2023-01-19T05:42:39.254Z,98251.56
2023-01-19T05:44:11.631Z,98243.53
2023-01-19T05:45:43.663Z,98261.72
2023-01-19T05:47:15.676Z,98250.31
2023-01-19T05:48:47.656Z,98253.13
2023-01-19T05:50:20.228Z,98259.94
2023-01-19T05:51:52.150Z,98253.13
2023-01-19T05:53:24.288Z,98250.44
2023-01-19T05:54:56.231Z,98239.59
2023-01-19T05:56:28.360Z,98248.50
2023-01-19T05:58:00.498Z,98240.66
2023-01-19T05:59:32.451Z,98225.50
2023-01-19T06:01:05.715Z,98232.81
2023-01-19T06:02:37.875Z,98216.38
2023-01-19T06:04:09.839Z,98213.38
2023-01-19T06:05:41.850Z,98213.38
2023-01-19T06:07:13.804Z,98199.25
2023-01-19T06:08:46.004Z,98203.16
2023-01-19T06:10:18.010Z,98199.78
2023-01-19T06:11:50.165Z,98205.47
2023-01-19T06:13:22.111Z,98215.47
2023-01-19T06:14:54.102Z,98216.88
2023-01-19T06:16:26.016Z,98227.59
2023-01-19T06:17:58.094Z,98232.25
2023-01-19T06:19:30.294Z,98232.25
2023-01-19T06:21:05.942Z,98231.91
2023-01-19T06:22:37.912Z,98227.25
2023-01-19T06:24:10.037Z,98234.59
2023-01-19T06:25:42.046Z,98226.03
2023-01-19T06:27:14.085Z,98234.38
2023-01-19T06:28:46.587Z,98229.78
2023-01-19T06:30:18.783Z,98230.47
2023-01-19T06:31:51.035Z,98223.34
2023-01-19T06:33:24.118Z,98235.50
2023-01-19T06:34:56.099Z,98235.50
2023-01-19T06:36:28.039Z,98226.03
2023-01-19T06:38:00.039Z,98226.22
2023-01-19T06:39:32.080Z,98213.72
2023-01-19T06:41:04.827Z,98214.97
2023-01-19T06:42:36.956Z,98201.41
2023-01-19T06:44:09.297Z,98208.88
2023-01-19T06:45:41.526Z,98206.75
2023-01-19T06:47:15.353Z,98218.31
2023-01-19T06:48:48.225Z,98235.66
2023-01-19T06:50:20.194Z,98251.56
2023-01-19T06:51:52.375Z,98259.59
2023-01-19T06:53:24.413Z,98257.97
2023-01-19T06:54:56.777Z,98259.22
2023-01-19T06:56:28.798Z,98256.00
2023-01-19T06:58:01.344Z,98243.53
2023-01-19T06:59:33.227Z,98241.38
2023-01-19T07:01:06.213Z,98237.06
2023-01-19T07:02:42.619Z,98233.16
2023-01-19T07:04:15.302Z,98226.22
2023-01-19T07:05:47.324Z,98224.41
2023-01-19T07:07:19.316Z,98220.84
2023-01-19T07:08:51.247Z,98212.81
2023-01-19T07:10:24.194Z,98222.81
2023-01-19T07:11:56.198Z,98226.56
2023-01-19T07:13:28.679Z,98228.53
2023-01-19T07:15:00.705Z,98234.25
2023-01-19T07:16:32.790Z,98231.91
2023-01-19T07:18:09.773Z,98241.72
2023-01-19T07:19:41.852Z,98244.78
2023-01-19T07:21:14.358Z,98242.09
2023-01-19T07:22:46.639Z,98241.53
2023-01-19T07:24:18.551Z,98245.97
2023-01-19T07:25:50.718Z,98254.00
2023-01-19T07:27:22.656Z,98247.94
2023-01-19T07:28:54.719Z,98244.75
2023-01-19T07:30:27.028Z,98244.19
2023-01-19T07:31:59.559Z,98260.47
2023-01-19T07:33:31.612Z,98268.50
2023-01-19T07:35:04.187Z,98257.03
2023-01-19T07:36:36.183Z,98263.28
2023-01-19T07:38:08.147Z,98249.38
2023-01-19T07:39:40.296Z,98235.78
2023-01-19T07:41:12.462Z,98229.19
2023-01-19T07:42:48.785Z,98230.09
2023-01-19T07:44:20.805Z,98237.25
2023-01-19T07:45:55.524Z,98234.03
2023-01-19T07:47:27.556Z,98243.53
2023-01-19T07:48:59.600Z,98248.16
2023-01-19T07:50:32.035Z,98235.13
2023-01-19T07:52:04.160Z,98248.31
2023-01-19T07:53:36.715Z,98248.88
2023-01-19T07:55:08.988Z,98246.53
2023-01-19T07:56:40.991Z,98244.78
2023-01-19T07:58:16.349Z,98241.38
2023-01-19T07:59:48.431Z,98258.16
2023-01-19T08:03:47.409Z,98252.28
2023-01-19T08:05:19.902Z,98256.53
2023-01-19T08:06:52.104Z,98266.88
2023-01-19T08:08:24.040Z,98271.78
2023-01-19T08:10:25.768Z,98279.06
2023-01-19T08:12:18.401Z,98274.44
2023-01-19T08:14:01.739Z,98280.16
2023-01-19T08:15:55.203Z,98284.25
2023-01-19T08:17:27.180Z,98278.19
2023-01-19T08:18:59.157Z,98288.56
2023-01-19T08:20:37.986Z,98296.44
2023-01-19T08:22:10.037Z,98295.16
2023-01-19T08:23:42.079Z,98297.84
2023-01-19T08:25:14.181Z,98295.00
2023-01-19T08:26:46.269Z,98296.25
2023-01-19T08:28:36.951Z,98288.56
2023-01-19T08:30:27.950Z,98291.44
2023-01-19T08:32:44.972Z,98292.00
2023-01-19T08:34:16.945Z,98290.56
2023-01-19T08:35:49.901Z,98299.31
2023-01-19T08:37:21.917Z,98286.09
2023-01-19T08:38:54.017Z,98279.69
2023-01-19T08:40:26.017Z,98275.38
2023-01-19T08:41:59.319Z,98282.69
2023-01-19T08:43:55.734Z,98284.13
2023-01-19T08:47:30.008Z,98282.00
2023-01-19T08:50:05.258Z,98285.00
2023-01-19T08:51:38.215Z,98277.72
2023-01-19T08:53:10.382Z,98290.22
2023-01-19T08:54:42.384Z,98276.13
2023-01-19T08:56:14.541Z,98300.94
2023-01-19T08:57:46.802Z,98289.88
2023-01-19T08:59:18.742Z,98295.03
2023-01-19T09:01:27.411Z,98287.72
2023-01-19T09:03:11.434Z,98279.53
2023-01-19T09:05:19.749Z,98275.06
2023-01-19T09:06:54.374Z,98271.84
2023-01-19T09:09:10.009Z,98269.53
2023-01-19T09:10:49.510Z,98275.09
2023-01-19T09:12:21.534Z,98272.03
2023-01-19T09:13:53.832Z,98276.50
2023-01-19T09:15:25.899Z,98288.47
2023-01-19T09:16:59.129Z,98274.00
2023-01-19T09:18:31.382Z,98286.88
2023-01-19T09:20:12.874Z,98290.06
2023-01-19T09:22:06.749Z,98293.84
2023-01-19T09:23:38.786Z,98291.00
2023-01-19T09:25:45.442Z,98298.84
2023-01-19T09:27:30.303Z,98293.16
2023-01-19T09:29:02.315Z,98301.72
2023-01-19T09:31:10.501Z,98304.75
2023-01-19T09:33:31.099Z,98295.47
2023-01-19T09:35:14.669Z,98309.56
2023-01-19T09:36:47.180Z,98314.78
2023-01-19T09:38:19.851Z,98304.22
2023-01-19T09:39:51.830Z,98300.84
2023-01-19T09:41:26.015Z,98302.09
2023-01-19T09:43:08.908Z,98284.41
2023-01-19T09:44:42.289Z,98298.16
2023-01-19T09:46:24.531Z,98300.66
2023-01-19T09:47:57.890Z,98293.88
2023-01-19T09:49:39.528Z,98280.97
2023-01-19T09:51:19.858Z,98300.31
2023-01-19T09:53:07.446Z,98282.03
2023-01-19T09:55:09.796Z,98286.69
2023-01-19T09:56:51.228Z,98282.22
2023-01-19T09:58:24.296Z,98284.56
2023-01-19T10:00:03.135Z,98280.41
2023-01-19T10:02:41.096Z,98287.06
2023-01-19T10:04:37.451Z,98279.00
2023-01-19T10:06:11.650Z,98270.19
2023-01-19T10:08:05.392Z,98289.56
2023-01-19T10:10:05.897Z,98272.00
2023-01-19T10:11:52.675Z,98271.25
2023-01-19T10:13:32.757Z,98269.84
2023-01-19T10:15:15.270Z,98289.31
2023-01-19T10:16:50.053Z,98276.97
2023-01-19T10:18:31.089Z,98270.72
2023-01-19T10:20:03.414Z,98264.41
2023-01-19T10:21:39.996Z,98303.78
2023-01-19T10:23:24.951Z,98279.06
2023-01-19T10:25:12.803Z,98283.38
2023-01-19T10:27:20.863Z,98282.13
2023-01-19T10:28:55.452Z,98279.78
2023-01-19T10:31:12.596Z,98273.88
2023-01-19T10:32:50.874Z,98270.84
2023-01-19T10:35:06.180Z,98292.13
2023-01-19T10:36:39.772Z,98293.22
2023-01-19T10:38:32.964Z,98277.66
2023-01-19T10:40:12.480Z,98278.72
2023-01-19T10:42:00.166Z,98309.88
2023-01-19T10:44:28.417Z,98289.44
2023-01-19T10:46:36.618Z,98287.47
2023-01-19T10:48:58.907Z,98282.28
2023-01-19T10:50:59.908Z,98288.19
2023-01-19T10:52:53.076Z,98290.50
2023-01-19T10:55:26.268Z,98297.47
2023-01-19T10:56:59.805Z,98296.94
2023-01-19T10:58:34.898Z,98299.25
2023-01-19T11:00:27.461Z,98289.94
2023-01-19T11:02:41.313Z,98314.69
2023-01-19T11:04:21.431Z,98292.97
2023-01-19T11:06:19.841Z,98299.59
2023-01-19T11:07:59.698Z,98286.53
2023-01-19T11:10:18.638Z,98299.41
2023-01-19T11:12:26.110Z,98302.63
2023-01-19T11:14:23.819Z,98296.41
2023-01-19T11:17:03.347Z,98292.59
2023-01-19T11:18:39.199Z,98295.47
2023-01-19T11:20:40.745Z,98296.19
2023-01-19T11:22:33.000Z,98295.13
2023-01-19T11:26:57.298Z,98301.94
2023-01-19T11:28:56.167Z,98290.50
2023-01-19T11:30:28.237Z,98295.50
2023-01-19T11:32:38.914Z,98296.06
2023-01-19T11:34:38.710Z,98304.13
2023-01-19T11:36:16.971Z,98303.06
2023-01-19T11:37:49.077Z,98300.56
2023-01-19T11:39:45.447Z,98289.81
2023-01-19T11:41:49.876Z,98313.97
2023-01-19T11:43:23.535Z,98311.84
2023-01-19T11:44:58.389Z,98312.03
2023-01-19T11:46:33.322Z,98318.63
2023-01-19T11:48:06.034Z,98321.50
2023-01-19T11:49:52.741Z,98319.91
2023-01-19T11:51:27.399Z,98318.47
2023-01-19T11:53:11.951Z,98328.13
2023-01-19T11:55:18.393Z,98324.91
2023-01-19T11:57:15.198Z,98338.13
2023-01-19T11:58:47.599Z,98329.22
2023-01-19T12:00:23.511Z,98337.06
2023-01-19T12:01:57.985Z,98325.25
2023-01-19T12:03:35.816Z,98328.50
2023-01-19T12:05:12.305Z,98340.28
2023-01-19T12:06:53.831Z,98348.50
2023-01-19T12:09:03.222Z,98348.72
2023-01-19T12:10:38.305Z,98333.31
2023-01-19T12:12:13.105Z,98331.34
2023-01-19T12:13:58.966Z,98337.44
2023-01-19T12:15:30.975Z,98340.31
2023-01-19T12:17:05.801Z,98333.53
2023-01-19T12:18:43.903Z,98333.88
2023-01-19T12:20:31.618Z,98338.53
2023-01-19T12:22:04.750Z,98355.53
2023-01-19T12:23:55.784Z,98344.97
2023-01-19T12:26:02.335Z,98349.78
2023-01-19T12:27:42.237Z,98338.00
2023-01-19T12:29:15.856Z,98354.47
2023-01-19T12:30:49.079Z,98355.72
2023-01-19T12:32:32.262Z,98341.75
2023-01-19T12:34:31.237Z,98347.66
2023-01-19T12:36:40.992Z,98349.63
2023-01-19T12:38:48.579Z,98337.44
2023-01-19T12:40:36.590Z,98335.31
2023-01-19T12:42:31.573Z,98342.28
2023-01-19T12:44:27.055Z,98373.25
2023-01-19T12:46:31.900Z,98352.13
2023-01-19T12:48:04.404Z,98341.03
2023-01-19T12:49:39.205Z,98341.06
2023-01-19T12:51:49.118Z,98361.41
2023-01-19T12:53:22.575Z,98351.44
2023-01-19T12:55:31.446Z,98360.56
2023-01-19T12:57:21.408Z,98369.31
2023-01-19T12:58:53.464Z,98365.38
2023-01-19T13:00:36.991Z,98355.19
2023-01-19T13:02:35.672Z,98362.72
2023-01-19T13:04:37.280Z,98365.03
2023-01-19T13:06:35.851Z,98373.28
2023-01-19T13:08:18.341Z,98351.78
2023-01-19T13:10:03.689Z,98366.63
2023-01-19T13:12:53.101Z,98375.75
2023-01-19T13:14:44.548Z,98374.31
2023-01-19T13:17:18.393Z,98390.41
2023-01-19T13:19:37.060Z,98387.38
2023-01-19T13:21:54.736Z,98388.28
2023-01-19T13:23:27.596Z,98392.03
2023-01-19T13:25:38.583Z,98395.25
2023-01-19T13:27:30.402Z,98386.47
2023-01-19T13:29:05.222Z,98397.59
2023-01-19T13:31:16.623Z,98401.88
2023-01-19T13:32:48.716Z,98407.22
2023-01-19T13:34:22.949Z,98407.59
2023-01-19T13:35:56.531Z,98405.97
2023-01-19T13:37:39.521Z,98407.94
2023-01-19T13:39:18.581Z,98412.97
2023-01-19T13:40:51.137Z,98409.75
2023-01-19T13:42:43.743Z,98410.81
2023-01-19T13:44:19.451Z,98414.03
2023-01-19T13:45:53.457Z,98429.22
2023-01-19T13:47:59.999Z,98424.94
2023-01-19T13:50:05.526Z,98426.00
2023-01-19T13:52:05.778Z,98434.19
2023-01-19T13:53:37.804Z,98440.63
2023-01-19T13:55:14.145Z,98440.09
2023-01-19T13:56:52.009Z,98453.34
2023-01-19T13:58:32.013Z,98445.09
2023-01-19T14:00:59.240Z,98447.78
2023-01-19T14:02:31.417Z,98452.59
2023-01-19T14:04:04.098Z,98443.47
2023-01-19T14:05:37.780Z,98446.16
2023-01-19T14:07:41.338Z,98449.75
2023-01-19T14:09:16.920Z,98434.38
2023-01-19T14:11:02.116Z,98451.88
2023-01-19T14:12:35.539Z,98448.50
2023-01-19T14:14:22.757Z,98450.78
2023-01-19T14:15:59.718Z,98459.03
2023-01-19T14:17:32.587Z,98464.03
2023-01-19T14:19:05.443Z,98462.59
2023-01-19T14:20:41.319Z,98459.38
2023-01-19T14:22:13.352Z,98456.50
2023-01-19T14:23:48.055Z,98460.63
2023-01-19T14:25:27.492Z,98465.28
2023-01-19T14:27:10.244Z,98476.38
2023-01-19T14:28:43.929Z,98462.75
2023-01-19T14:30:26.061Z,98475.28
2023-01-19T14:32:18.313Z,98471.88
2023-01-19T14:34:06.656Z,98473.13
2023-01-19T14:35:38.680Z,98467.56
2023-01-19T14:37:27.084Z,98470.59
2023-01-19T14:39:00.172Z,98470.97
2023-01-19T14:40:32.794Z,98478.31
2023-01-19T14:42:06.682Z,98472.34
2023-01-19T14:44:16.109Z,98476.50
2023-01-19T14:46:22.585Z,98475.91
2023-01-19T14:48:22.350Z,98480.00
2023-01-19T14:49:54.921Z,98471.97
2023-01-19T14:51:27.763Z,98487.88
2023-01-19T14:53:15.741Z,98479.31
2023-01-19T14:54:48.403Z,98485.91
2023-01-19T14:56:30.657Z,98485.00
2023-01-19T14:58:02.747Z,98477.84
2023-01-19T14:59:34.745Z,98487.09
2023-01-19T15:01:06.879Z,98480.69
2023-01-19T15:03:34.959Z,98474.94
2023-01-19T15:05:14.851Z,98481.56
2023-01-19T15:07:03.076Z,98486.53
2023-01-19T15:09:07.538Z,98482.59
2023-01-19T15:10:46.954Z,98494.38
2023-01-19T15:12:24.127Z,98484.38
2023-01-19T15:14:17.949Z,98485.44
2023-01-19T15:16:31.351Z,98480.94
2023-01-19T15:18:50.921Z,98485.03
2023-01-19T15:20:23.223Z,98485.41
2023-01-19T15:21:55.191Z,98474.31
2023-01-19T15:24:00.473Z,98489.66
2023-01-19T15:25:32.502Z,98487.31
2023-01-19T15:27:04.472Z,98481.25
2023-01-19T15:28:36.442Z,98483.00
2023-01-19T15:30:16.415Z,98489.81
2023-01-19T15:31:48.493Z,98474.25
2023-01-19T15:33:21.599Z,98481.38
2023-01-19T15:34:53.834Z,98479.41
2023-01-19T15:36:25.891Z,98483.53
2023-01-19T15:38:05.870Z,98490.47
2023-01-19T15:39:37.980Z,98482.59
2023-01-19T15:41:23.501Z,98480.47
2023-01-19T15:42:55.669Z,98485.66
2023-01-19T15:44:27.647Z,98481.72
2023-01-19T15:45:59.613Z,98486.84
2023-01-19T15:48:24.841Z,98494.19
2023-01-19T15:50:26.872Z,98491.50
2023-01-19T15:52:51.851Z,98496.69
2023-01-19T15:55:08.977Z,98500.78
2023-01-19T15:57:59.928Z,98503.28
2023-01-19T16:00:35.583Z,98518.41
2023-01-19T16:02:55.094Z,98519.84
2023-01-19T16:04:27.102Z,98527.69
2023-01-19T16:06:00.778Z,98525.56
2023-01-19T16:08:27.619Z,98539.63
2023-01-19T16:10:39.355Z,98547.50
2023-01-19T16:13:04.228Z,98563.72
2023-01-19T16:14:36.265Z,98575.19
2023-01-19T16:16:21.783Z,98569.69
2023-01-19T16:18:18.301Z,98565.19
2023-01-19T16:20:34.365Z,98567.69
2023-01-19T16:22:15.783Z,98573.22
2023-01-19T16:24:18.448Z,98558.22
2023-01-19T16:26:04.925Z,98567.69
2023-01-19T16:27:52.564Z,98569.47
2023-01-19T16:30:28.378Z,98576.03
2023-01-19T16:34:44.639Z,98609.94
2023-01-19T16:36:53.159Z,98617.97
2023-01-19T16:38:29.623Z,98633.50
2023-01-19T16:40:30.542Z,98639.91
2023-01-19T16:42:31.921Z,98643.31
2023-01-19T16:44:11.626Z,98644.53
2023-01-19T16:46:05.894Z,98652.78
2023-01-19T16:47:56.341Z,98640.81
2023-01-19T16:49:28.682Z,98651.53
2023-01-19T16:51:27.842Z,98653.19
2023-01-19T16:53:49.375Z,98653.91
2023-01-19T16:55:33.120Z,98659.97
2023-01-19T16:57:37.493Z,98655.16
2023-01-19T17:00:30.839Z,98658.72
2023-01-19T17:02:44.184Z,98663.56
2023-01-19T17:05:18.881Z,98666.94
2023-01-19T17:07:25.050Z,98666.75
2023-01-19T17:09:50.495Z,98668.72
2023-01-19T17:11:46.041Z,98669.63
2023-01-19T17:14:06.292Z,98673.19
2023-01-19T17:15:41.808Z,98683.13
2023-01-19T17:17:26.864Z,98678.53
2023-01-19T17:20:13.917Z,98683.88
2023-01-19T17:24:25.660Z,98664.41
2023-01-19T17:26:33.940Z,98667.66
2023-01-19T17:28:43.062Z,98670.16
2023-01-19T17:31:09.073Z,98675.63
2023-01-19T17:33:49.356Z,98677.06
2023-01-19T17:35:29.194Z,98672.03
2023-01-19T17:37:26.689Z,98671.31
2023-01-19T17:39:05.459Z,98686.16
2023-01-19T17:40:56.422Z,98672.56
2023-01-19T17:43:01.140Z,98682.53
2023-01-19T17:45:10.826Z,98672.56
2023-01-19T17:47:03.248Z,98673.59
2023-01-19T17:50:04.183Z,98689.16
2023-01-19T17:52:16.475Z,98665.25
2023-01-19T17:54:02.017Z,98659.16
2023-01-19T17:56:09.897Z,98667.00
2023-01-19T18:00:32.746Z,98649.44
2023-01-19T18:03:22.814Z,98657.75
2023-01-19T18:05:00.822Z,98645.94
2023-01-19T18:06:41.592Z,98653.56
2023-01-19T18:08:29.875Z,98648.72
2023-01-19T18:10:22.434Z,98650.09
2023-01-19T18:12:16.067Z,98647.19
2023-01-19T18:14:16.223Z,98654.09
2023-01-19T18:16:15.716Z,98658.22
2023-01-19T18:17:57.573Z,98654.63
2023-01-19T18:19:46.776Z,98666.16
2023-01-19T18:21:20.370Z,98668.00
2023-01-19T18:25:04.630Z,98661.66
2023-01-19T18:27:01.053Z,98652.38
2023-01-19T18:28:54.448Z,98668.50
2023-01-19T18:30:26.506Z,98652.78
2023-01-19T18:31:58.481Z,98644.38
2023-01-19T18:33:32.129Z,98657.22
2023-01-19T18:35:04.301Z,98652.78
2023-01-19T18:36:37.330Z,98638.78
2023-01-19T18:38:15.773Z,98641.28
2023-01-19T18:39:49.251Z,98631.22
2023-01-19T18:41:21.858Z,98638.81
2023-01-19T18:42:54.011Z,98621.84
2023-01-19T18:44:26.131Z,98629.66
2023-01-19T18:46:01.289Z,98626.47
2023-01-19T18:47:33.557Z,98630.69
2023-01-19T18:49:05.855Z,98626.56
2023-01-19T18:50:37.952Z,98632.44
2023-01-19T18:52:10.170Z,98640.53
2023-01-19T18:53:42.928Z,98643.44
2023-01-19T18:55:15.108Z,98641.28
2023-01-19T18:56:49.458Z,98631.22
2023-01-19T18:58:21.611Z,98636.25
2023-01-19T18:59:53.634Z,98625.63
2023-01-19T19:01:27.152Z,98618.16
2023-01-19T19:03:00.214Z,98612.78
2023-01-19T19:04:49.291Z,98631.31
2023-01-19T19:06:21.585Z,98624.94
2023-01-19T19:07:53.622Z,98640.25
2023-01-19T19:09:25.589Z,98646.53
2023-01-19T19:11:07.919Z,98669.22
2023-01-19T19:12:41.703Z,98670.34
2023-01-19T19:14:13.662Z,98685.53
2023-01-19T19:15:45.834Z,98689.44
2023-01-19T19:17:18.047Z,98690.25
2023-01-19T19:18:50.092Z,98681.09
2023-01-19T19:20:23.439Z,98679.25
2023-01-19T19:21:56.675Z,98673.38
2023-01-19T19:23:28.768Z,98686.50
2023-01-19T19:25:00.774Z,98689.50
2023-01-19T19:26:32.816Z,98695.84
2023-01-19T19:28:04.855Z,98697.38
2023-01-19T19:29:36.923Z,98712.25
2023-01-19T19:31:10.528Z,98713.78
2023-01-19T19:32:42.692Z,98720.13
2023-01-19T19:34:14.722Z,98718.44
2023-01-19T19:35:48.187Z,98732.31
2023-01-19T19:37:20.242Z,98723.66
2023-01-19T19:38:52.329Z,98730.28
2023-01-19T19:40:27.807Z,98730.56
2023-01-19T19:41:59.884Z,98729.94
2023-01-19T19:43:42.203Z,98739.94
2023-01-19T19:45:15.231Z,98748.75
2023-01-19T19:46:47.329Z,98754.88
2023-01-19T19:48:20.127Z,98751.75
2023-01-19T19:49:52.062Z,98756.84
2023-01-19T19:51:28.212Z,98747.47
2023-01-19T19:53:00.352Z,98742.00
2023-01-19T19:54:32.469Z,98753.47
2023-01-19T19:56:05.212Z,98751.13
2023-01-19T19:57:37.302Z,98760.63
2023-01-19T19:59:10.250Z,98746.84
2023-01-19T20:00:45.858Z,98757.78
2023-01-19T20:02:17.926Z,98755.91
2023-01-19T20:03:50.029Z,98755.66
2023-01-19T20:05:21.980Z,98753.97
2023-01-19T20:06:54.049Z,98747.22